青森空港の過去48時間の天気

青森空港 (Aomori)

現在時刻: 7/17 18:54 JST (7/17 09:54 UTC) 以下の時間は現地時間です。

過去48時間のMETAR気象情報
時間 風向 風速(m/s) 視程 気温(℃) 湿度(%) 気圧(hPa) 天気現象
17 18:00 南西 5 5000m 21 94 1009 弱いしゅう雨 もや
17 17:36 南南西 5 2000m 21 94 1009 しゅう雨 散在した霧 もや
17 17:28 南南西 5 2000m 21 94 1009 強いしゅう雨 散在した霧 もや
17 17:00 南南西 5 2000m 21 94 1009 しゅう雨 散在した霧 もや
17 16:38 南南西 5 2000m 21 94 1009 散在した霧 しゅう雨 もや
17 16:27 南南西 5 2000m 22 88 1009 散在した霧 強いしゅう雨 もや
17 16:00 南南西 5 4000m 22 94 1009 しゅう雨 もや
17 15:33 南西 4 4000m 23 94 1010 しゅう雨 もや
17 15:00 南南西 5 8000m 23 89 1010 弱いしゅう雨
17 14:46 南南西 5 3000m 22 94 1010 強いしゅう雨 もや
17 14:34 南西 5 4500m 23 89 1010 しゅう雨 もや
17 14:00 南西 5 8000m 23 94 1010 弱いしゅう雨
17 13:00 南西 5 8000m 24 89 1010 弱いしゅう雨
17 12:00 南南西 5 8000m 24 89 1009 弱いしゅう雨
17 11:00 南南西 4 8000m 23 89 1010 弱いしゅう雨
17 10:24 南南西 7 5000m 23 89 1010 弱いしゅう雨 もや
17 10:16 南南西 7 4000m 23 89 1010 しゅう雨 もや
17 10:07 南南西 6 5000m 23 89 1010 しゅう雨 もや
17 10:00 南南西 7 8000m 23 89 1010 弱いしゅう雨
17 09:29 南南西 7 5000m 23 89 1010 弱いしゅう雨 もや
17 09:19 南南西 6 5000m 23 89 1010 しゅう雨 もや
17 09:00 南南西 5 10km以上 23 89 1009 弱いしゅう雨
17 08:00 6 6000m 22 88 1010 弱いしゅう雨
17 07:19 4 4000m 22 88 1010 散在した霧 弱いしゅう雨 もや
17 07:00 5 8000m 22 88 1011 部分霧 弱いしゅう雨
17 06:40 4 8000m 22 88 1011 弱いしゅう雨
RJSA 170900Z 22009KT 5000 -SHRA BR FEW001 SCT020 BKN040 21/20 Q1009
RJSA 170836Z 20010KT 2000 R24/P1800N SHRA BCFG BR FEW001 SCT020 BKN030 21/20 Q1009 RMK 1ST001 3CU020 6CU030 A2982
RJSA 170828Z 21010KT 2000 +SHRA BCFG BR FEW001 SCT020 BKN030 21/20 Q1009 RMK 1ST001 3CU020 6CU030 A2982
RJSA 170800Z 20009KT 2000 SHRA BCFG BR FEW001 SCT020 BKN035 21/20 Q1009
RJSA 170738Z 21010KT 2000 R24/1300VP1800U SHRA BCFG BR FEW001 SCT020 BKN035 21/20 Q1009 RMK 1ST001 3CU020 6CU035 A2982
RJSA 170727Z 20010KT 2000 R24/1200VP1800U +SHRA BCFG BR FEW001 SCT020 BKN035 22/20 Q1009 RMK 1ST001 3CU020 6CU035 A2982
RJSA 170700Z 21009KT 4000 R24/1400VP1800U SHRA BR FEW005 SCT020 BKN045 22/21 Q1009
RJSA 170633Z 23007KT 4000 SHRA BR FEW005 SCT020 BKN030 23/22 Q1010 RMK 1ST005 3CU020 6CU030 A2982
RJSA 170600Z 21009KT 8000 -SHRA FEW005 SCT025 BKN045 23/21 Q1010
RJSA 170546Z 20009KT 3000 R24/1300VP1800N +SHRA BR FEW005 SCT025 BKN030 22/21 Q1010 RMK 1ST005 3CU025 6CU030 A2983
RJSA 170534Z 22009KT 4500 SHRA BR FEW005 SCT035 BKN045 23/21 Q1010 RMK 1ST005 3CU035 6CU045 A2984
RJSA 170500Z 22009KT 8000 -SHRA FEW010 SCT040 BKN070 23/22 Q1010
RJSA 170400Z 22010KT 8000 -SHRA FEW010 SCT030 BKN050 24/22 Q1010
RJSA 170300Z 21010KT 8000 -SHRA FEW005 SCT040 BKN120 24/22 Q1009
RJSA 170200Z 20007KT 160V230 8000 -SHRA FEW010 SCT040 BKN060 23/21 Q1010
RJSA 170124Z 20013KT 5000 -SHRA BR FEW010 SCT020 BKN050 23/21 Q1010 RMK 1ST010 3CU020 6CU050 A2983
RJSA 170116Z 20014KT 4000 SHRA BR FEW010 SCT020 BKN050 23/21 Q1010 RMK 1ST010 3CU020 6CU050 A2983
RJSA 170107Z 20012KT 5000 SHRA BR FEW010 SCT020 BKN050 23/21 Q1010 RMK 1ST010 3CU020 6CU050 A2983
RJSA 170100Z 20013KT 8000 -SHRA FEW010 SCT020 BKN080 23/21 Q1010
RJSA 170029Z 20014KT 5000 R24/1200VP1800U -SHRA BR FEW010 SCT020 BKN040 23/21 Q1010 RMK 1ST010 3CU020 6CU040 A2983
RJSA 170019Z 20012KT 5000 SHRA BR FEW010 SCT020 BKN040 23/21 Q1010 RMK 1ST010 3CU020 6CU040 A2983
RJSA 170000Z 20010KT 9999 -SHRA FEW010 SCT040 BKN070 23/21 Q1009
RJSA 162300Z 19012KT 6000 -SHRA FEW005 SCT030 BKN050 22/20 Q1010
RJSA 162219Z 19008KT 4000 BCFG -SHRA BR FEW001 SCT020 BKN040 22/20 Q1010 RMK 1ST001 3CU020 6CU040 A2985
RJSA 162200Z 18010KT 8000 PRFG -SHRA FEW001 SCT020 BKN050 22/20 Q1011
RJSA 162140Z 19007KT 8000 -SHRA FEW005 SCT040 BKN070 22/20 Q1011 RMK 1ST005 3CU040 6AC070 A2986